Asian Infinity — 3EVP3 — position and weather

sailwx.info

Track history (hours):
 
Tides and Currents Weather Stations Pressure Air Temp Water Temp Dewpoint Dewpoint Depression Visibility Wind Speed Wind Dir Waves Ship Positions

Asian Infinity

Last reported at 2014-Nov-26 09:33 UTC. Time now 2014-Nov-26 10:05 UTC.
Position N 38°57' E 121°46'.

Length 104 m; draft 5.3 m.

Type: Ship (hazmat cat A). MMSI: 351868000.

Date/timePositionNaut miles runAvg speedWind from/ knotsBaromVisibWave heightAir tempDewpointWater temp
2014-Nov-26 09:33N 38°57' E 121°46'3 0.2
2014-Nov-25 13:30N 39°00' E 121°46'6 6.0
2014-Nov-25 12:31N 38°54' E 121°47'73 1.7
2014-Nov-23 18:06N 37°52' E 122°35'6 9.9
2014-Nov-23 17:30N 37°47' E 122°38'9 9.5
2014-Nov-23 16:33N 37°39' E 122°43'9 9.0
2014-Nov-23 15:33N 37°31' E 122°48'9 9.2
2014-Nov-23 14:33N 37°22' E 122°53'10 9.7
2014-Nov-23 13:31N 37°12' E 122°53'1010.5
2014-Nov-23 12:31N 37°01' E 122°53'1111.1
2014-Nov-23 11:33N 36°51' E 122°53'34210.2
2014-Nov-22 02:13N 31°09' E 122°50'9 9.3
2014-Nov-22 01:13N 31°02' E 122°43'6 9.3
2014-Nov-22 00:33N 30°60' E 122°36'8 8.1
2014-Nov-21 23:32N 31°00' E 122°27'8 8.2
2014-Nov-21 22:33N 31°02' E 122°18'9 8.8
2014-Nov-21 21:33N 31°03' E 122°08'1211.9
2014-Nov-21 20:33N 31°08' E 121°55'1313.5
2014-Nov-21 19:33N 31°17' E 121°44'1211.7
2014-Nov-21 18:33N 31°24' E 121°32'3 2.8
2014-Nov-21 17:33N 31°22' E 121°30'0 0.0
2014-Nov-21 16:33N 31°22' E 121°30'0 0.0
2014-Nov-21 15:33N 31°22' E 121°30'0 0.0
2014-Nov-21 14:06N 31°22' E 121°30'0 0.0
2014-Nov-21 13:33N 31°22' E 121°30'0 0.0
2014-Nov-21 12:33N 31°22' E 121°30'0 0.0
2014-Nov-21 11:33N 31°22' E 121°30'0 0.0
2014-Nov-21 10:27N 31°22' E 121°30'0 0.0
2014-Nov-21 09:21N 31°22' E 121°30'0 0.0
2014-Nov-21 08:27N 31°22' E 121°30'0 0.0
2014-Nov-21 07:33N 31°22' E 121°30'0 0.0
2014-Nov-21 06:33N 31°22' E 121°30'3 2.7
2014-Nov-21 05:33N 31°24' E 121°32'9 9.0
2014-Nov-21 04:33N 31°20' E 121°42'1211.6
2014-Nov-21 03:33N 31°11' E 121°50'1211.7
2014-Nov-21 02:33N 31°05' E 122°02'1010.4
2014-Nov-21 01:33N 31°03' E 122°14'1010.4
2014-Nov-21 00:33N 31°01' E 122°26'8 8.2
2014-Nov-20 23:33N 31°03' E 122°35'  
Track history (hours):
 
Tides and Currents Weather Stations Pressure Air Temp Water Temp Dewpoint Dewpoint Depression Visibility Wind Speed Wind Dir Waves Ship Positions

Asian Infinity

Last reported at 2014-Nov-26 09:33 UTC. Time now 2014-Nov-26 10:05 UTC.
Position N 38°57' E 121°46'.

Length 104 m; draft 5.3 m.

Type: Ship (hazmat cat A). MMSI: 351868000.

Date/timePositionNaut miles runAvg speedWind from/ knotsBaromVisibWave heightAir tempDewpointWater temp
2014-Nov-26 09:33N 38°57' E 121°46'3 0.2
2014-Nov-25 13:30N 39°00' E 121°46'6 6.0
2014-Nov-25 12:31N 38°54' E 121°47'73 1.7
2014-Nov-23 18:06N 37°52' E 122°35'6 9.9
2014-Nov-23 17:30N 37°47' E 122°38'9 9.5
2014-Nov-23 16:33N 37°39' E 122°43'9 9.0
2014-Nov-23 15:33N 37°31' E 122°48'9 9.2
2014-Nov-23 14:33N 37°22' E 122°53'10 9.7
2014-Nov-23 13:31N 37°12' E 122°53'1010.5
2014-Nov-23 12:31N 37°01' E 122°53'1111.1
2014-Nov-23 11:33N 36°51' E 122°53'34210.2
2014-Nov-22 02:13N 31°09' E 122°50'9 9.3
2014-Nov-22 01:13N 31°02' E 122°43'6 9.3
2014-Nov-22 00:33N 30°60' E 122°36'8 8.1
2014-Nov-21 23:32N 31°00' E 122°27'8 8.2
2014-Nov-21 22:33N 31°02' E 122°18'9 8.8
2014-Nov-21 21:33N 31°03' E 122°08'1211.9
2014-Nov-21 20:33N 31°08' E 121°55'1313.5
2014-Nov-21 19:33N 31°17' E 121°44'1211.7
2014-Nov-21 18:33N 31°24' E 121°32'3 2.8
2014-Nov-21 17:33N 31°22' E 121°30'0 0.0
2014-Nov-21 16:33N 31°22' E 121°30'0 0.0
2014-Nov-21 15:33N 31°22' E 121°30'0 0.0
2014-Nov-21 14:06N 31°22' E 121°30'0 0.0
2014-Nov-21 13:33N 31°22' E 121°30'0 0.0
2014-Nov-21 12:33N 31°22' E 121°30'0 0.0
2014-Nov-21 11:33N 31°22' E 121°30'0 0.0
2014-Nov-21 10:27N 31°22' E 121°30'0 0.0
2014-Nov-21 09:21N 31°22' E 121°30'0 0.0
2014-Nov-21 08:27N 31°22' E 121°30'0 0.0
2014-Nov-21 07:33N 31°22' E 121°30'0 0.0
2014-Nov-21 06:33N 31°22' E 121°30'3 2.7
2014-Nov-21 05:33N 31°24' E 121°32'9 9.0
2014-Nov-21 04:33N 31°20' E 121°42'1211.6
2014-Nov-21 03:33N 31°11' E 121°50'1211.7
2014-Nov-21 02:33N 31°05' E 122°02'1010.4
2014-Nov-21 01:33N 31°03' E 122°14'1010.4
2014-Nov-21 00:33N 31°01' E 122°26'8 8.2
2014-Nov-20 23:33N 31°03' E 122°35'  

Dump ship's entire track history